sensor_id;sensor_type;location;lat;lon;timestamp;pressure;altitude;pressure_sealevel;temperature;humidity
11682;BME280;5897;42.640;23.310;2022-08-19T00:02:00;93684.47;;;23.31;55.96
11682;BME280;5897;42.640;23.310;2022-08-19T00:04:30;93688.47;;;23.36;55.94
11682;BME280;5897;42.640;23.310;2022-08-19T00:06:58;93691.03;;;23.28;56.24
11682;BME280;5897;42.640;23.310;2022-08-19T00:09:26;93688.34;;;23.17;56.96
11682;BME280;5897;42.640;23.310;2022-08-19T00:11:54;93675.56;;;23.20;56.72
11682;BME280;5897;42.640;23.310;2022-08-19T00:14:22;93686.72;;;23.33;56.80
11682;BME280;5897;42.640;23.310;2022-08-19T00:16:51;93687.41;;;23.39;56.21
11682;BME280;5897;42.640;23.310;2022-08-19T00:19:20;93695.47;;;23.37;56.71
11682;BME280;5897;42.640;23.310;2022-08-19T00:21:48;93704.00;;;23.33;57.14
11682;BME280;5897;42.640;23.310;2022-08-19T00:24:15;93707.06;;;23.30;57.33
11682;BME280;5897;42.640;23.310;2022-08-19T00:26:43;93713.09;;;23.23;57.40
11682;BME280;5897;42.640;23.310;2022-08-19T00:29:11;93700.56;;;23.27;56.01
11682;BME280;5897;42.640;23.310;2022-08-19T00:31:38;93704.47;;;23.37;56.24
11682;BME280;5897;42.640;23.310;2022-08-19T00:34:07;93706.03;;;22.92;58.41
11682;BME280;5897;42.640;23.310;2022-08-19T00:36:34;93700.22;;;22.55;59.53
11682;BME280;5897;42.640;23.310;2022-08-19T00:39:01;93698.84;;;22.78;58.48
11682;BME280;5897;42.640;23.310;2022-08-19T00:41:28;93705.03;;;22.90;57.67
11682;BME280;5897;42.640;23.310;2022-08-19T00:44:00;93696.97;;;22.97;57.66
11682;BME280;5897;42.640;23.310;2022-08-19T00:46:28;93691.66;;;23.05;57.25
11682;BME280;5897;42.640;23.310;2022-08-19T00:48:55;93679.91;;;23.04;57.25
11682;BME280;5897;42.640;23.310;2022-08-19T00:51:26;93698.63;;;23.11;57.25
11682;BME280;5897;42.640;23.310;2022-08-19T00:53:55;93691.09;;;23.17;57.25
11682;BME280;5897;42.640;23.310;2022-08-19T00:56:23;93684.56;;;23.15;57.46
11682;BME280;5897;42.640;23.310;2022-08-19T00:58:52;93692.69;;;23.02;57.96
11682;BME280;5897;42.640;23.310;2022-08-19T01:01:20;93691.66;;;23.05;57.80
11682;BME280;5897;42.640;23.310;2022-08-19T01:03:47;93679.41;;;23.00;57.33
11682;BME280;5897;42.640;23.310;2022-08-19T01:06:14;93696.38;;;23.10;57.53
11682;BME280;5897;42.640;23.310;2022-08-19T01:08:42;93691.19;;;23.01;57.26
11682;BME280;5897;42.640;23.310;2022-08-19T01:11:09;93686.47;;;22.96;57.39
11682;BME280;5897;42.640;23.310;2022-08-19T01:13:36;93679.28;;;22.82;57.88
11682;BME280;5897;42.640;23.310;2022-08-19T01:16:04;93688.97;;;22.53;59.77
11682;BME280;5897;42.640;23.310;2022-08-19T01:18:37;93682.00;;;22.47;59.73
11682;BME280;5897;42.640;23.310;2022-08-19T01:21:09;93670.00;;;22.33;60.10
11682;BME280;5897;42.640;23.310;2022-08-19T01:23:42;93684.50;;;22.45;59.70
11682;BME280;5897;42.640;23.310;2022-08-19T01:26:11;93683.50;;;22.48;59.94
11682;BME280;5897;42.640;23.310;2022-08-19T01:28:39;93681.47;;;22.43;59.85
11682;BME280;5897;42.640;23.310;2022-08-19T01:31:12;93682.25;;;22.43;59.84
11682;BME280;5897;42.640;23.310;2022-08-19T01:33:39;93681.72;;;22.50;59.61
11682;BME280;5897;42.640;23.310;2022-08-19T01:36:08;93694.50;;;22.48;59.81
11682;BME280;5897;42.640;23.310;2022-08-19T01:38:37;93684.47;;;22.56;59.65
11682;BME280;5897;42.640;23.310;2022-08-19T01:41:07;93688.72;;;22.57;59.58
11682;BME280;5897;42.640;23.310;2022-08-19T01:43:34;93689.72;;;22.54;59.88
11682;BME280;5897;42.640;23.310;2022-08-19T01:46:02;93689.66;;;22.65;59.93
11682;BME280;5897;42.640;23.310;2022-08-19T01:48:33;93696.44;;;22.64;59.80
11682;BME280;5897;42.640;23.310;2022-08-19T01:51:00;93682.22;;;22.49;59.90
11682;BME280;5897;42.640;23.310;2022-08-19T01:53:27;93685.50;;;22.42;60.28
11682;BME280;5897;42.640;23.310;2022-08-19T01:55:54;93692.69;;;22.61;59.65
11682;BME280;5897;42.640;23.310;2022-08-19T01:58:26;93682.25;;;22.43;60.71
11682;BME280;5897;42.640;23.310;2022-08-19T02:00:55;93688.56;;;22.33;60.92
11682;BME280;5897;42.640;23.310;2022-08-19T02:03:23;93689.81;;;22.26;61.05
11682;BME280;5897;42.640;23.310;2022-08-19T02:05:54;93686.59;;;22.17;61.66
11682;BME280;5897;42.640;23.310;2022-08-19T02:08:21;93685.41;;;22.01;62.45
11682;BME280;5897;42.640;23.310;2022-08-19T02:10:48;93687.88;;;22.10;62.11
11682;BME280;5897;42.640;23.310;2022-08-19T02:13:15;93685.38;;;22.07;62.30
11682;BME280;5897;42.640;23.310;2022-08-19T02:15:44;93688.66;;;22.00;62.98
11682;BME280;5897;42.640;23.310;2022-08-19T02:18:10;93691.69;;;21.96;63.44
11682;BME280;5897;42.640;23.310;2022-08-19T02:20:38;93683.94;;;21.89;63.99
11682;BME280;5897;42.640;23.310;2022-08-19T02:23:07;93684.16;;;21.97;63.27
11682;BME280;5897;42.640;23.310;2022-08-19T02:25:34;93683.44;;;21.96;62.77
11682;BME280;5897;42.640;23.310;2022-08-19T02:28:00;93688.41;;;22.03;61.96
11682;BME280;5897;42.640;23.310;2022-08-19T02:30:27;93685.63;;;22.09;61.57
11682;BME280;5897;42.640;23.310;2022-08-19T02:32:56;93687.59;;;22.14;61.57
11682;BME280;5897;42.640;23.310;2022-08-19T02:35:23;93682.81;;;22.20;61.66
11682;BME280;5897;42.640;23.310;2022-08-19T02:37:50;93685.13;;;22.16;62.23
11682;BME280;5897;42.640;23.310;2022-08-19T02:40:34;93688.59;;;22.16;62.23
11682;BME280;5897;42.640;23.310;2022-08-19T02:43:04;93687.38;;;22.12;62.28
11682;BME280;5897;42.640;23.310;2022-08-19T02:45:33;93685.91;;;22.00;62.91
11682;BME280;5897;42.640;23.310;2022-08-19T02:48:02;93695.44;;;21.99;62.56
11682;BME280;5897;42.640;23.310;2022-08-19T02:50:29;93701.44;;;21.92;62.70
11682;BME280;5897;42.640;23.310;2022-08-19T02:52:56;93688.38;;;22.09;63.02
11682;BME280;5897;42.640;23.310;2022-08-19T02:55:23;93696.38;;;22.07;62.70
11682;BME280;5897;42.640;23.310;2022-08-19T02:57:49;93704.41;;;22.05;63.38
11682;BME280;5897;42.640;23.310;2022-08-19T03:00:16;93707.72;;;21.87;63.94
11682;BME280;5897;42.640;23.310;2022-08-19T03:02:43;93708.19;;;21.91;63.60
11682;BME280;5897;42.640;23.310;2022-08-19T03:05:12;93715.69;;;21.85;64.51
11682;BME280;5897;42.640;23.310;2022-08-19T03:07:38;93706.47;;;21.77;64.78
11682;BME280;5897;42.640;23.310;2022-08-19T03:10:06;93709.97;;;21.72;64.96
11682;BME280;5897;42.640;23.310;2022-08-19T03:12:35;93707.97;;;21.72;65.06
11682;BME280;5897;42.640;23.310;2022-08-19T03:15:03;93689.00;;;21.41;65.82
11682;BME280;5897;42.640;23.310;2022-08-19T03:17:31;93700.25;;;21.38;66.80
11682;BME280;5897;42.640;23.310;2022-08-19T03:19:58;93688.00;;;21.33;67.17
11682;BME280;5897;42.640;23.310;2022-08-19T03:22:26;93693.50;;;21.28;67.63
11682;BME280;5897;42.640;23.310;2022-08-19T03:24:54;93686.75;;;21.34;67.80
11682;BME280;5897;42.640;23.310;2022-08-19T03:27:20;93686.00;;;21.39;67.49
11682;BME280;5897;42.640;23.310;2022-08-19T03:29:47;93686.75;;;21.45;67.58
11682;BME280;5897;42.640;23.310;2022-08-19T03:32:14;93690.47;;;21.42;67.30
11682;BME280;5897;42.640;23.310;2022-08-19T03:34:41;93683.25;;;21.23;68.28
11682;BME280;5897;42.640;23.310;2022-08-19T03:37:10;93683.50;;;20.92;69.46
11682;BME280;5897;42.640;23.310;2022-08-19T03:39:40;93699.50;;;21.04;69.70
11682;BME280;5897;42.640;23.310;2022-08-19T03:42:08;93699.97;;;21.08;69.50
11682;BME280;5897;42.640;23.310;2022-08-19T03:44:34;93666.03;;;21.00;69.24
11682;BME280;5897;42.640;23.310;2022-08-19T03:47:03;93698.25;;;21.27;68.58
11682;BME280;5897;42.640;23.310;2022-08-19T03:49:31;93710.47;;;21.21;69.05
11682;BME280;5897;42.640;23.310;2022-08-19T03:52:00;93719.72;;;21.12;69.44
11682;BME280;5897;42.640;23.310;2022-08-19T03:54:28;93719.97;;;21.14;69.66
11682;BME280;5897;42.640;23.310;2022-08-19T03:56:56;93728.47;;;21.22;69.51
11682;BME280;5897;42.640;23.310;2022-08-19T03:59:25;93722.72;;;21.31;69.51
11682;BME280;5897;42.640;23.310;2022-08-19T04:01:53;93716.72;;;21.27;69.32
11682;BME280;5897;42.640;23.310;2022-08-19T04:04:20;93731.97;;;21.39;69.20
11682;BME280;5897;42.640;23.310;2022-08-19T04:06:47;93725.97;;;21.35;69.16
11682;BME280;5897;42.640;23.310;2022-08-19T04:09:17;93718.97;;;21.28;68.70
11682;BME280;5897;42.640;23.310;2022-08-19T04:11:46;93731.72;;;21.48;68.71
11682;BME280;5897;42.640;23.310;2022-08-19T04:14:17;93738.97;;;21.51;68.53
11682;BME280;5897;42.640;23.310;2022-08-19T04:16:44;93726.47;;;21.50;67.63
11682;BME280;5897;42.640;23.310;2022-08-19T04:19:12;93728.72;;;21.46;69.16
11682;BME280;5897;42.640;23.310;2022-08-19T04:21:39;93734.94;;;21.52;68.94
11682;BME280;5897;42.640;23.310;2022-08-19T04:24:06;93742.19;;;21.66;69.18
11682;BME280;5897;42.640;23.310;2022-08-19T04:26:36;93738.22;;;21.78;68.53
11682;BME280;5897;42.640;23.310;2022-08-19T04:29:06;93741.94;;;21.86;68.03
11682;BME280;5897;42.640;23.310;2022-08-19T04:31:35;93742.94;;;21.94;67.35
11682;BME280;5897;42.640;23.310;2022-08-19T04:34:04;93737.44;;;21.94;67.13
11682;BME280;5897;42.640;23.310;2022-08-19T04:36:35;93741.41;;;22.09;66.62
11682;BME280;5897;42.640;23.310;2022-08-19T04:39:05;93743.16;;;22.12;66.73
11682;BME280;5897;42.640;23.310;2022-08-19T04:41:32;93735.84;;;22.26;66.35
11682;BME280;5897;42.640;23.310;2022-08-19T04:44:16;93734.81;;;22.34;65.61
11682;BME280;5897;42.640;23.310;2022-08-19T04:46:45;93735.78;;;22.42;65.62
11682;BME280;5897;42.640;23.310;2022-08-19T04:49:14;93731.78;;;22.49;65.43
11682;BME280;5897;42.640;23.310;2022-08-19T04:51:43;93733.47;;;22.63;64.20
11682;BME280;5897;42.640;23.310;2022-08-19T04:54:11;93743.41;;;22.77;63.16
11682;BME280;5897;42.640;23.310;2022-08-19T04:56:40;93741.88;;;22.87;63.82
11682;BME280;5897;42.640;23.310;2022-08-19T04:59:07;93744.34;;;22.96;64.39
11682;BME280;5897;42.640;23.310;2022-08-19T05:01:36;93743.50;;;23.06;64.69
11682;BME280;5897;42.640;23.310;2022-08-19T05:04:05;93748.69;;;23.21;64.43
11682;BME280;5897;42.640;23.310;2022-08-19T05:06:33;93743.66;;;23.25;64.02
11682;BME280;5897;42.640;23.310;2022-08-19T05:09:02;93754.63;;;23.36;63.54
11682;BME280;5897;42.640;23.310;2022-08-19T05:11:32;93748.78;;;23.45;63.49
11682;BME280;5897;42.640;23.310;2022-08-19T05:13:59;93750.47;;;23.53;62.33
11682;BME280;5897;42.640;23.310;2022-08-19T05:16:26;93754.47;;;23.58;61.76
11682;BME280;5897;42.640;23.310;2022-08-19T05:18:53;93750.44;;;23.59;62.03
11682;BME280;5897;42.640;23.310;2022-08-19T05:21:40;93747.34;;;23.68;60.69
11682;BME280;5897;42.640;23.310;2022-08-19T05:24:26;93753.31;;;23.72;59.78
11682;BME280;5897;42.640;23.310;2022-08-19T05:26:54;93755.00;;;23.80;60.56
11682;BME280;5897;42.640;23.310;2022-08-19T05:29:23;93747.41;;;23.92;60.70
11682;BME280;5897;42.640;23.310;2022-08-19T05:31:52;93747.06;;;24.01;60.25
11682;BME280;5897;42.640;23.310;2022-08-19T05:34:21;93751.34;;;24.26;58.94
11682;BME280;5897;42.640;23.310;2022-08-19T05:36:53;93750.56;;;24.25;59.14
11682;BME280;5897;42.640;23.310;2022-08-19T05:39:23;93749.34;;;24.45;59.42
11682;BME280;5897;42.640;23.310;2022-08-19T05:41:52;93750.81;;;24.51;59.16
11682;BME280;5897;42.640;23.310;2022-08-19T05:44:20;93748.75;;;24.57;58.83
11682;BME280;5897;42.640;23.310;2022-08-19T05:46:48;93753.38;;;24.68;58.18
11682;BME280;5897;42.640;23.310;2022-08-19T05:49:20;93760.47;;;24.82;57.74
11682;BME280;5897;42.640;23.310;2022-08-19T05:51:48;93757.56;;;24.93;57.10
11682;BME280;5897;42.640;23.310;2022-08-19T05:54:17;93757.44;;;25.04;57.18
11682;BME280;5897;42.640;23.310;2022-08-19T05:56:44;93753.31;;;25.10;57.04
11682;BME280;5897;42.640;23.310;2022-08-19T05:59:14;93746.88;;;25.21;56.88
11682;BME280;5897;42.640;23.310;2022-08-19T06:01:43;93747.50;;;25.32;55.50
11682;BME280;5897;42.640;23.310;2022-08-19T06:04:10;93753.09;;;25.45;55.57
11682;BME280;5897;42.640;23.310;2022-08-19T06:06:38;93761.00;;;25.54;55.30
11682;BME280;5897;42.640;23.310;2022-08-19T06:09:06;93755.38;;;25.60;55.01
11682;BME280;5897;42.640;23.310;2022-08-19T06:11:38;93753.47;;;25.68;54.84
11682;BME280;5897;42.640;23.310;2022-08-19T06:14:08;93754.44;;;25.70;55.05
11682;BME280;5897;42.640;23.310;2022-08-19T06:16:36;93760.03;;;25.83;55.12
11682;BME280;5897;42.640;23.310;2022-08-19T06:19:05;93761.69;;;25.92;54.29
11682;BME280;5897;42.640;23.310;2022-08-19T06:21:34;93746.34;;;25.91;54.78
11682;BME280;5897;42.640;23.310;2022-08-19T06:24:03;93762.34;;;26.11;53.18
11682;BME280;5897;42.640;23.310;2022-08-19T06:26:30;93745.09;;;26.18;53.02
11682;BME280;5897;42.640;23.310;2022-08-19T06:28:59;93758.22;;;26.30;52.51
11682;BME280;5897;42.640;23.310;2022-08-19T06:31:27;93753.00;;;26.40;52.46
11682;BME280;5897;42.640;23.310;2022-08-19T06:33:54;93765.34;;;26.52;52.01
11682;BME280;5897;42.640;23.310;2022-08-19T06:36:23;93768.25;;;26.46;52.40
11682;BME280;5897;42.640;23.310;2022-08-19T06:38:52;93765.69;;;26.61;51.71
11682;BME280;5897;42.640;23.310;2022-08-19T06:41:19;93759.41;;;26.74;51.23
11682;BME280;5897;42.640;23.310;2022-08-19T06:43:46;93761.00;;;26.82;50.42
11682;BME280;5897;42.640;23.310;2022-08-19T06:46:16;93760.78;;;26.93;49.50
11682;BME280;5897;42.640;23.310;2022-08-19T06:48:44;93764.31;;;26.94;49.68
11682;BME280;5897;42.640;23.310;2022-08-19T06:51:11;93758.66;;;26.86;50.09
11682;BME280;5897;42.640;23.310;2022-08-19T06:53:40;93765.09;;;27.15;49.32
11682;BME280;5897;42.640;23.310;2022-08-19T06:56:13;93760.75;;;27.19;49.47
11682;BME280;5897;42.640;23.310;2022-08-19T06:58:40;93769.47;;;27.23;49.54
11682;BME280;5897;42.640;23.310;2022-08-19T07:01:07;93768.28;;;27.32;49.42
11682;BME280;5897;42.640;23.310;2022-08-19T07:03:37;93765.50;;;27.32;47.84
11682;BME280;5897;42.640;23.310;2022-08-19T07:06:05;93767.94;;;27.48;48.48
11682;BME280;5897;42.640;23.310;2022-08-19T07:08:33;93769.28;;;27.55;47.75
11682;BME280;5897;42.640;23.310;2022-08-19T07:11:02;93767.59;;;27.52;48.35
11682;BME280;5897;42.640;23.310;2022-08-19T07:13:29;93768.91;;;27.71;48.65
11682;BME280;5897;42.640;23.310;2022-08-19T07:16:03;93765.44;;;27.58;49.30
11682;BME280;5897;42.640;23.310;2022-08-19T07:18:30;93770.28;;;27.78;48.14
11682;BME280;5897;42.640;23.310;2022-08-19T07:21:03;93768.75;;;27.90;48.57
11682;BME280;5897;42.640;23.310;2022-08-19T07:23:30;93775.97;;;27.93;47.34
11682;BME280;5897;42.640;23.310;2022-08-19T07:25:57;93779.78;;;28.03;47.05
11682;BME280;5897;42.640;23.310;2022-08-19T07:28:24;93778.34;;;27.89;46.99
11682;BME280;5897;42.640;23.310;2022-08-19T07:30:51;93762.56;;;28.04;46.76
11682;BME280;5897;42.640;23.310;2022-08-19T07:33:18;93771.66;;;28.33;47.06
11682;BME280;5897;42.640;23.310;2022-08-19T07:35:45;93773.72;;;28.53;46.05
11682;BME280;5897;42.640;23.310;2022-08-19T07:38:13;93772.66;;;28.63;45.47
11682;BME280;5897;42.640;23.310;2022-08-19T07:40:41;93777.16;;;28.74;45.91
11682;BME280;5897;42.640;23.310;2022-08-19T07:43:08;93775.31;;;28.76;42.73
11682;BME280;5897;42.640;23.310;2022-08-19T07:45:35;93775.00;;;28.87;42.92
11682;BME280;5897;42.640;23.310;2022-08-19T07:48:01;93770.56;;;28.92;44.59
11682;BME280;5897;42.640;23.310;2022-08-19T07:50:29;93771.28;;;29.13;42.41
11682;BME280;5897;42.640;23.310;2022-08-19T07:52:56;93771.53;;;29.30;42.52
11682;BME280;5897;42.640;23.310;2022-08-19T07:55:25;93784.78;;;29.52;44.01
11682;BME280;5897;42.640;23.310;2022-08-19T07:57:52;93777.63;;;29.71;42.81
11682;BME280;5897;42.640;23.310;2022-08-19T08:00:19;93775.00;;;29.73;42.11
11682;BME280;5897;42.640;23.310;2022-08-19T08:02:46;93761.84;;;29.74;42.61
11682;BME280;5897;42.640;23.310;2022-08-19T08:05:13;93771.28;;;29.71;42.82
11682;BME280;5897;42.640;23.310;2022-08-19T08:07:57;93773.38;;;29.93;42.64
11682;BME280;5897;42.640;23.310;2022-08-19T08:10:42;93771.00;;;30.04;40.74
11682;BME280;5897;42.640;23.310;2022-08-19T08:13:09;93763.41;;;30.35;40.06
11682;BME280;5897;42.640;23.310;2022-08-19T08:15:36;93763.59;;;30.52;39.83
11682;BME280;5897;42.640;23.310;2022-08-19T08:18:04;93764.13;;;30.73;41.13
11682;BME280;5897;42.640;23.310;2022-08-19T08:20:31;93767.28;;;30.77;40.38
11682;BME280;5897;42.640;23.310;2022-08-19T08:22:58;93761.63;;;30.99;39.80
11682;BME280;5897;42.640;23.310;2022-08-19T08:25:43;93752.69;;;31.01;38.54
11682;BME280;5897;42.640;23.310;2022-08-19T08:28:10;93753.63;;;31.03;37.79
11682;BME280;5897;42.640;23.310;2022-08-19T08:30:37;93757.47;;;31.15;36.72
11682;BME280;5897;42.640;23.310;2022-08-19T08:33:07;93754.06;;;31.39;36.78
11682;BME280;5897;42.640;23.310;2022-08-19T08:35:34;93754.22;;;31.49;35.73
11682;BME280;5897;42.640;23.310;2022-08-19T08:38:02;93744.69;;;31.52;33.37
11682;BME280;5897;42.640;23.310;2022-08-19T08:40:33;93749.91;;;31.48;35.68
11682;BME280;5897;42.640;23.310;2022-08-19T08:43:07;93749.28;;;31.64;36.15
11682;BME280;5897;42.640;23.310;2022-08-19T08:45:38;93749.75;;;31.85;35.33
11682;BME280;5897;42.640;23.310;2022-08-19T08:48:15;93745.41;;;32.16;34.68
11682;BME280;5897;42.640;23.310;2022-08-19T08:50:45;93746.41;;;32.36;35.55
11682;BME280;5897;42.640;23.310;2022-08-19T08:53:17;93751.06;;;32.58;33.34
11682;BME280;5897;42.640;23.310;2022-08-19T08:55:44;93736.09;;;32.63;33.18
11682;BME280;5897;42.640;23.310;2022-08-19T08:58:17;93744.72;;;32.74;31.54
11682;BME280;5897;42.640;23.310;2022-08-19T09:00:48;93748.88;;;32.90;30.56
11682;BME280;5897;42.640;23.310;2022-08-19T09:03:18;93735.72;;;33.00;31.75
11682;BME280;5897;42.640;23.310;2022-08-19T09:05:55;93733.41;;;32.89;29.61
11682;BME280;5897;42.640;23.310;2022-08-19T09:08:31;93741.72;;;33.14;29.59
11682;BME280;5897;42.640;23.310;2022-08-19T09:11:00;93733.06;;;33.19;30.76
11682;BME280;5897;42.640;23.310;2022-08-19T09:13:40;93711.25;;;33.35;32.50
11682;BME280;5897;42.640;23.310;2022-08-19T09:16:10;93734.59;;;33.47;32.17
11682;BME280;5897;42.640;23.310;2022-08-19T09:18:41;93718.94;;;33.61;29.62
11682;BME280;5897;42.640;23.310;2022-08-19T09:21:08;93725.81;;;33.77;29.42
11682;BME280;5897;42.640;23.310;2022-08-19T09:23:35;93730.72;;;33.86;29.14
11682;BME280;5897;42.640;23.310;2022-08-19T09:26:07;93717.56;;;34.15;28.97
11682;BME280;5897;42.640;23.310;2022-08-19T09:28:35;93713.84;;;34.39;29.37
11682;BME280;5897;42.640;23.310;2022-08-19T09:31:03;93718.41;;;34.44;28.51
11682;BME280;5897;42.640;23.310;2022-08-19T09:33:29;93714.94;;;34.72;27.92
11682;BME280;5897;42.640;23.310;2022-08-19T09:36:09;93707.72;;;34.69;26.79
11682;BME280;5897;42.640;23.310;2022-08-19T09:38:37;93710.81;;;34.73;26.37
11682;BME280;5897;42.640;23.310;2022-08-19T09:41:08;93709.03;;;34.68;24.55
11682;BME280;5897;42.640;23.310;2022-08-19T09:43:37;93708.78;;;34.83;25.76
11682;BME280;5897;42.640;23.310;2022-08-19T09:46:04;93714.78;;;34.51;24.45
11682;BME280;5897;42.640;23.310;2022-08-19T09:48:33;93708.94;;;34.85;27.28
11682;BME280;5897;42.640;23.310;2022-08-19T09:51:04;93716.19;;;35.07;22.80
11682;BME280;5897;42.640;23.310;2022-08-19T09:53:32;93706.41;;;35.17;23.46
11682;BME280;5897;42.640;23.310;2022-08-19T09:55:59;93699.03;;;35.22;24.09
11682;BME280;5897;42.640;23.310;2022-08-19T09:58:25;93701.84;;;35.50;23.47
11682;BME280;5897;42.640;23.310;2022-08-19T10:00:54;93695.72;;;35.63;25.77
11682;BME280;5897;42.640;23.310;2022-08-19T10:03:22;93692.53;;;35.38;26.30
11682;BME280;5897;42.640;23.310;2022-08-19T10:05:49;93679.81;;;35.47;25.45
11682;BME280;5897;42.640;23.310;2022-08-19T10:08:16;93703.47;;;35.44;23.69
11682;BME280;5897;42.640;23.310;2022-08-19T10:10:44;93695.09;;;35.84;23.09
11682;BME280;5897;42.640;23.310;2022-08-19T10:13:12;93673.19;;;35.82;22.53
11682;BME280;5897;42.640;23.310;2022-08-19T10:15:38;93672.06;;;35.76;22.36
11682;BME280;5897;42.640;23.310;2022-08-19T10:18:07;93690.69;;;35.81;23.01
11682;BME280;5897;42.640;23.310;2022-08-19T10:20:34;93674.84;;;35.85;23.24
11682;BME280;5897;42.640;23.310;2022-08-19T10:23:02;93677.19;;;35.89;24.11
11682;BME280;5897;42.640;23.310;2022-08-19T10:25:29;93678.16;;;36.03;24.46
11682;BME280;5897;42.640;23.310;2022-08-19T10:27:56;93675.50;;;36.05;25.68
11682;BME280;5897;42.640;23.310;2022-08-19T10:30:23;93669.59;;;36.31;25.13
11682;BME280;5897;42.640;23.310;2022-08-19T10:32:49;93669.16;;;36.56;23.29
11682;BME280;5897;42.640;23.310;2022-08-19T10:35:18;93668.94;;;36.73;23.95
11682;BME280;5897;42.640;23.310;2022-08-19T10:37:44;93673.84;;;37.05;23.30
11682;BME280;5897;42.640;23.310;2022-08-19T10:40:11;93670.53;;;37.18;22.43
11682;BME280;5897;42.640;23.310;2022-08-19T10:42:38;93665.78;;;37.32;22.01
11682;BME280;5897;42.640;23.310;2022-08-19T10:45:06;93669.94;;;37.31;21.69
11682;BME280;5897;42.640;23.310;2022-08-19T10:47:34;93666.56;;;37.44;22.45
11682;BME280;5897;42.640;23.310;2022-08-19T10:50:02;93659.41;;;37.75;21.14
11682;BME280;5897;42.640;23.310;2022-08-19T10:52:49;93660.00;;;37.74;22.54
11682;BME280;5897;42.640;23.310;2022-08-19T10:55:17;93661.69;;;37.56;22.29
11682;BME280;5897;42.640;23.310;2022-08-19T10:58:02;93652.16;;;37.61;19.72
11682;BME280;5897;42.640;23.310;2022-08-19T11:00:29;93660.28;;;37.78;21.61
11682;BME280;5897;42.640;23.310;2022-08-19T11:02:56;93658.19;;;37.90;20.48
11682;BME280;5897;42.640;23.310;2022-08-19T11:05:23;93647.78;;;37.92;23.03
11682;BME280;5897;42.640;23.310;2022-08-19T11:07:52;93658.47;;;37.94;21.66
11682;BME280;5897;42.640;23.310;2022-08-19T11:10:19;93645.34;;;37.87;21.38
11682;BME280;5897;42.640;23.310;2022-08-19T11:12:47;93645.09;;;37.94;21.09
11682;BME280;5897;42.640;23.310;2022-08-19T11:15:13;93651.50;;;38.06;19.79
11682;BME280;5897;42.640;23.310;2022-08-19T11:17:40;93627.44;;;37.94;20.49
11682;BME280;5897;42.640;23.310;2022-08-19T11:20:10;93658.59;;;38.19;21.26
11682;BME280;5897;42.640;23.310;2022-08-19T11:22:37;93646.56;;;37.84;20.88
11682;BME280;5897;42.640;23.310;2022-08-19T11:25:07;93649.00;;;37.78;23.01
11682;BME280;5897;42.640;23.310;2022-08-19T11:27:38;93644.50;;;38.07;21.70
11682;BME280;5897;42.640;23.310;2022-08-19T11:30:08;93646.56;;;38.41;20.04
11682;BME280;5897;42.640;23.310;2022-08-19T11:32:35;93641.88;;;38.69;20.84
11682;BME280;5897;42.640;23.310;2022-08-19T11:35:01;93641.84;;;38.80;20.64
11682;BME280;5897;42.640;23.310;2022-08-19T11:37:29;93636.44;;;38.96;20.94
11682;BME280;5897;42.640;23.310;2022-08-19T11:39:55;93634.13;;;39.17;20.28
11682;BME280;5897;42.640;23.310;2022-08-19T11:42:23;93632.63;;;39.28;20.44
11682;BME280;5897;42.640;23.310;2022-08-19T11:45:08;93617.72;;;39.27;18.79
11682;BME280;5897;42.640;23.310;2022-08-19T11:47:35;93617.34;;;39.33;19.88
11682;BME280;5897;42.640;23.310;2022-08-19T11:50:04;93613.63;;;39.42;20.40
11682;BME280;5897;42.640;23.310;2022-08-19T11:52:31;93627.63;;;39.65;19.94
11682;BME280;5897;42.640;23.310;2022-08-19T11:54:58;93613.94;;;39.73;19.62
11682;BME280;5897;42.640;23.310;2022-08-19T11:57:26;93613.72;;;39.69;19.74
11682;BME280;5897;42.640;23.310;2022-08-19T11:59:53;93614.91;;;39.77;20.05
11682;BME280;5897;42.640;23.310;2022-08-19T12:02:20;93615.03;;;39.93;19.21
11682;BME280;5897;42.640;23.310;2022-08-19T12:04:47;93610.94;;;39.82;21.02
11682;BME280;5897;42.640;23.310;2022-08-19T12:07:13;93611.28;;;40.02;19.83
11682;BME280;5897;42.640;23.310;2022-08-19T12:09:40;93607.28;;;39.93;20.06
11682;BME280;5897;42.640;23.310;2022-08-19T12:12:08;93608.78;;;40.08;18.80
11682;BME280;5897;42.640;23.310;2022-08-19T12:14:36;93605.50;;;40.00;19.21
11682;BME280;5897;42.640;23.310;2022-08-19T12:17:03;93596.19;;;40.11;19.69
11682;BME280;5897;42.640;23.310;2022-08-19T12:19:32;93585.31;;;40.19;19.66
11682;BME280;5897;42.640;23.310;2022-08-19T12:22:00;93587.81;;;40.13;19.29
11682;BME280;5897;42.640;23.310;2022-08-19T12:24:30;93583.25;;;39.81;19.63
11682;BME280;5897;42.640;23.310;2022-08-19T12:26:58;93584.81;;;39.84;17.83
11682;BME280;5897;42.640;23.310;2022-08-19T12:29:27;93579.63;;;39.92;19.25
11682;BME280;5897;42.640;23.310;2022-08-19T12:31:56;93574.91;;;39.96;18.91
11682;BME280;5897;42.640;23.310;2022-08-19T12:34:28;93563.84;;;39.62;18.41
11682;BME280;5897;42.640;23.310;2022-08-19T12:36:56;93563.03;;;39.73;18.76
11682;BME280;5897;42.640;23.310;2022-08-19T12:39:23;93573.41;;;39.82;18.49
11682;BME280;5897;42.640;23.310;2022-08-19T12:41:50;93561.44;;;39.70;19.85
11682;BME280;5897;42.640;23.310;2022-08-19T12:44:17;93569.97;;;39.97;19.08
11682;BME280;5897;42.640;23.310;2022-08-19T12:46:44;93541.56;;;39.95;19.47
11682;BME280;5897;42.640;23.310;2022-08-19T12:49:12;93571.63;;;39.75;18.48
11682;BME280;5897;42.640;23.310;2022-08-19T12:51:39;93555.63;;;40.06;18.83
11682;BME280;5897;42.640;23.310;2022-08-19T12:54:06;93549.16;;;40.17;18.74
11682;BME280;5897;42.640;23.310;2022-08-19T12:56:32;93558.56;;;40.22;18.28
11682;BME280;5897;42.640;23.310;2022-08-19T12:59:01;93543.66;;;40.35;18.68
11682;BME280;5897;42.640;23.310;2022-08-19T13:01:28;93540.66;;;40.31;19.46
11682;BME280;5897;42.640;23.310;2022-08-19T13:03:58;93545.97;;;40.38;19.62
11682;BME280;5897;42.640;23.310;2022-08-19T13:06:26;93551.13;;;40.28;18.96
11682;BME280;5897;42.640;23.310;2022-08-19T13:08:53;93540.94;;;40.37;18.97